Time;durP1;ratioP1;P1;durP2;ratioP2;P2;SDS_P1;SDS_P2;PMS_P1;PMS_P2;Temp;Humidity;BMP_temperature;BMP_pressure;BME280_temperature;BME280_humidity;BME280_pressure;Samples;Min_cycle;Max_cycle;Signal;HPM_P1;HPM_P2
2021/09/06 00:00:23;;;;;;;;;0.00;0.00;;;;;22.51;54.59;101702.25;5021844;27;45282;-80
2021/09/06 00:02:48;;;;;;;;;0.00;0.00;;;;;22.56;55.00;101712.72;5021397;28;46113;-79
2021/09/06 00:05:14;;;;;;;;;0.00;0.00;;;;;22.53;54.56;101711.91;5021363;28;45284;-80
2021/09/06 00:07:42;;;;;;;;;0.00;0.00;;;;;22.55;55.17;101714.50;5021450;28;45438;-80
2021/09/06 00:10:41;;;;;;;;;0.00;0.00;;;;;22.61;54.61;101730.31;5124742;27;45519;-80
2021/09/06 00:13:09;;;;;;;;;0.00;0.00;;;;;22.62;54.44;101728.50;5089456;27;47621;-81
2021/09/06 00:15:36;;;;;;;;;0.00;0.00;;;;;22.59;54.65;101723.28;5021187;28;45344;-79
2021/09/06 00:18:03;;;;;;;;;0.00;0.00;;;;;22.64;54.21;101726.69;5089923;27;45312;-80
2021/09/06 00:20:29;;;;;;;;;0.00;0.00;;;;;22.46;54.66;101698.81;5021446;28;45522;-79
2021/09/06 00:22:55;;;;;;;;;1.00;0.00;;;;;22.53;54.36;101716.31;5088119;27;48666;-81
2021/09/06 00:25:21;;;;;;;;;0.00;0.00;;;;;22.59;53.91;101729.47;5021196;27;45353;-79
2021/09/06 00:27:46;;;;;;;;;0.00;0.00;;;;;22.56;53.98;101728.63;5003268;28;45295;-79
2021/09/06 00:30:12;;;;;;;;;0.00;0.00;;;;;22.47;54.52;101713.81;5021226;28;45320;-79
2021/09/06 00:32:38;;;;;;;;;0.00;0.00;;;;;22.56;54.26;101725.97;5021105;27;45284;-80
2021/09/06 00:35:03;;;;;;;;;0.25;0.25;;;;;22.49;54.44;101723.50;5021659;27;45357;-80
2021/09/06 00:37:29;;;;;;;;;0.00;0.00;;;;;22.37;54.50;101707.91;5021098;28;45220;-79
2021/09/06 00:39:54;;;;;;;;;0.00;0.00;;;;;22.34;54.51;101713.28;5021555;28;45453;-80
2021/09/06 00:42:19;;;;;;;;;0.00;0.00;;;;;22.45;55.17;101729.78;5003173;28;45342;-79
2021/09/06 00:44:45;;;;;;;;;0.00;0.00;;;;;22.31;54.86;101713.34;5020933;27;45229;-79
2021/09/06 00:47:10;;;;;;;;;1.25;0.25;;;;;22.09;55.16;101682.09;5020979;28;45295;-80
2021/09/06 00:49:36;;;;;;;;;0.00;0.00;;;;;22.24;54.63;101713.50;5036361;28;45612;-79
2021/09/06 00:52:01;;;;;;;;;1.00;0.00;;;;;22.38;54.53;101736.16;5019830;28;46481;-80
2021/09/06 00:54:27;;;;;;;;;0.00;0.00;;;;;22.14;54.63;101693.44;5020416;28;45231;-79
2021/09/06 00:56:53;;;;;;;;;0.50;0.50;;;;;22.36;54.97;101730.03;5021008;27;45689;-79
2021/09/06 00:59:18;;;;;;;;;0.00;0.00;;;;;22.25;54.77;101731.19;5020970;28;45353;-80
2021/09/06 01:01:43;;;;;;;;;0.00;0.00;;;;;22.32;54.47;101731.03;5002618;28;48250;-79
2021/09/06 01:04:09;;;;;;;;;2.00;0.25;;;;;22.32;54.39;101739.84;5002783;28;45889;-79
2021/09/06 01:06:34;;;;;;;;;1.00;0.00;;;;;22.33;55.08;101736.25;5002935;28;45274;-80
2021/09/06 01:08:59;;;;;;;;;0.75;0.75;;;;;22.22;55.00;101718.00;5020983;27;45524;-79
2021/09/06 01:11:25;;;;;;;;;0.00;0.00;;;;;22.16;54.79;101712.84;5020485;28;45421;-79
2021/09/06 01:13:50;;;;;;;;;0.00;0.00;;;;;22.02;54.75;101684.88;5020389;28;45357;-80
2021/09/06 01:16:17;;;;;;;;;0.00;0.00;;;;;22.16;55.11;101715.47;5020656;28;45310;-79
2021/09/06 01:18:43;;;;;;;;;0.00;0.00;;;;;22.23;54.85;101718.84;5036267;28;45632;-79
2021/09/06 01:21:08;;;;;;;;;0.00;0.00;;;;;22.32;55.09;101733.69;5020345;28;45925;-79
2021/09/06 01:23:34;;;;;;;;;0.00;0.00;;;;;22.31;54.74;101731.91;5020006;28;45283;-79
2021/09/06 01:25:59;;;;;;;;;0.00;0.00;;;;;22.26;54.88;101724.06;5021045;28;45305;-80
2021/09/06 01:28:25;;;;;;;;;0.00;0.00;;;;;22.08;54.60;101712.16;5020677;28;45468;-80
2021/09/06 01:30:50;;;;;;;;;2.00;0.00;;;;;22.18;54.69;101736.66;5020143;28;45283;-80
2021/09/06 01:33:15;;;;;;;;;0.00;0.00;;;;;22.13;55.30;101737.66;5020290;28;45297;-80
2021/09/06 01:35:41;;;;;;;;;0.25;0.00;;;;;22.11;55.17;101735.94;5020324;28;45274;-79
2021/09/06 01:38:06;;;;;;;;;1.00;0.00;;;;;22.05;55.25;101728.13;5020706;27;45394;-80
2021/09/06 01:40:32;;;;;;;;;0.75;0.00;;;;;21.98;55.21;101722.09;5088286;27;47058;-79
2021/09/06 01:42:57;;;;;;;;;0.00;0.00;;;;;22.07;54.79;101739.56;5019923;28;45511;-79
2021/09/06 01:45:22;;;;;;;;;0.00;0.00;;;;;22.06;55.33;101738.72;5088361;27;45455;-79
2021/09/06 01:47:48;;;;;;;;;0.00;0.00;;;;;21.93;54.98;101722.19;5087923;27;45361;-79
2021/09/06 01:50:13;;;;;;;;;0.00;0.00;;;;;21.98;54.95;101733.59;5019876;28;45456;-79
2021/09/06 01:52:39;;;;;;;;;0.00;0.00;;;;;22.03;55.05;101749.38;5019948;28;45308;-79
2021/09/06 01:55:05;;;;;;;;;0.50;0.00;;;;;21.99;55.44;101751.22;5020145;28;45282;-79
2021/09/06 01:57:30;;;;;;;;;0.50;0.50;;;;;21.84;55.25;101727.75;5088610;27;45621;-80
2021/09/06 01:59:56;;;;;;;;;0.00;0.00;;;;;21.96;55.23;101756.59;5019929;28;46420;-79
2021/09/06 02:02:22;;;;;;;;;0.50;0.50;;;;;21.88;55.37;101746.19;5019943;28;45332;-79
2021/09/06 02:04:48;;;;;;;;;0.00;0.00;;;;;21.82;55.38;101734.84;5019508;28;45256;-80
2021/09/06 02:07:13;;;;;;;;;0.50;0.50;;;;;21.81;55.30;101727.81;5020288;28;45290;-80
2021/09/06 02:09:38;;;;;;;;;0.00;0.00;;;;;21.71;55.47;101720.03;5019738;28;45250;-80
2021/09/06 02:12:04;;;;;;;;;0.50;0.00;;;;;21.70;55.40;101714.75;5019623;28;45210;-80
2021/09/06 02:14:29;;;;;;;;;2.00;0.00;;;;;21.64;55.44;101716.66;5019968;28;45266;-79
2021/09/06 02:16:54;;;;;;;;;0.25;0.00;;;;;21.71;56.04;101735.06;5122916;27;45572;-79
2021/09/06 02:19:20;;;;;;;;;1.00;1.00;;;;;21.65;55.59;101728.09;5019576;28;46654;-80
2021/09/06 02:21:46;;;;;;;;;0.00;0.00;;;;;21.67;56.05;101736.91;5019635;28;45405;-79
2021/09/06 02:24:11;;;;;;;;;0.00;0.00;;;;;21.62;55.79;101739.66;5031933;27;45318;-79
2021/09/06 02:26:37;;;;;;;;;1.00;1.00;;;;;21.57;55.80;101724.78;5018332;28;45446;-81
2021/09/06 02:29:03;;;;;;;;;0.75;0.75;;;;;21.67;55.97;101750.16;5019404;28;45922;-79
2021/09/06 02:31:30;;;;;;;;;0.00;0.00;;;;;21.60;56.25;101748.53;5001548;28;45377;-80
2021/09/06 02:33:55;;;;;;;;;0.00;0.00;;;;;21.62;55.92;101758.19;5019735;27;45345;-79
2021/09/06 02:36:20;;;;;;;;;1.00;1.00;;;;;21.62;56.08;101760.00;5019997;27;45412;-80
2021/09/06 02:38:46;;;;;;;;;1.00;0.00;;;;;21.43;56.44;101733.00;5019437;28;45345;-79
2021/09/06 02:41:12;;;;;;;;;1.00;0.00;;;;;21.57;56.57;101761.84;5001487;28;45287;-80
2021/09/06 02:43:37;;;;;;;;;1.50;0.00;;;;;21.38;55.94;101733.97;5019431;27;45305;-80
2021/09/06 02:46:02;;;;;;;;;1.25;1.00;;;;;20.87;56.13;101660.88;5019686;27;45215;-80
2021/09/06 02:48:28;;;;;;;;;0.50;0.50;;;;;21.51;56.67;101763.75;5034222;28;47123;-79
2021/09/06 02:50:53;;;;;;;;;0.00;0.00;;;;;21.38;56.21;101744.56;5034301;28;45304;-80
2021/09/06 02:53:18;;;;;;;;;0.00;0.00;;;;;21.32;56.43;101738.53;5019430;28;45231;-80
2021/09/06 02:55:43;;;;;;;;;0.00;0.00;;;;;21.34;56.17;101745.53;5019596;28;45369;-80
2021/09/06 02:58:09;;;;;;;;;0.00;0.00;;;;;21.24;56.53;101734.28;5001294;28;47026;-80
2021/09/06 03:00:34;;;;;;;;;0.00;0.00;;;;;21.46;56.15;101770.00;5019163;28;45207;-79
2021/09/06 03:02:59;;;;;;;;;0.00;0.00;;;;;21.33;56.84;101742.94;5019242;28;45376;-80
2021/09/06 03:05:25;;;;;;;;;0.00;0.00;;;;;21.34;55.93;101760.53;5035096;28;45477;-80
2021/09/06 03:07:50;;;;;;;;;0.00;0.00;;;;;21.31;56.48;101750.03;5000966;28;47532;-79
2021/09/06 03:10:16;;;;;;;;;0.00;0.00;;;;;21.38;56.41;101756.97;5001254;28;45947;-79
2021/09/06 03:12:41;;;;;;;;;0.00;0.00;;;;;21.32;56.47;101755.31;5018920;28;45327;-80
2021/09/06 03:15:07;;;;;;;;;1.00;1.00;;;;;21.34;56.69;101755.25;5019271;28;45431;-79
2021/09/06 03:17:32;;;;;;;;;0.00;0.00;;;;;21.45;56.45;101766.50;5003901;28;47311;-80
2021/09/06 03:19:57;;;;;;;;;0.00;0.00;;;;;21.43;55.97;101764.78;5021890;28;45352;-80
2021/09/06 03:22:23;;;;;;;;;0.25;0.25;;;;;21.46;55.90;101770.00;5004080;28;45332;-80
2021/09/06 03:24:48;;;;;;;;;0.00;0.00;;;;;21.41;56.13;101754.25;5021917;28;45587;-80
2021/09/06 03:27:14;;;;;;;;;0.75;0.00;;;;;21.38;55.97;101741.91;5090037;27;48566;-80
2021/09/06 03:29:39;;;;;;;;;0.75;0.75;;;;;21.26;55.82;101726.31;5090451;27;45376;-80
2021/09/06 03:32:05;;;;;;;;;0.50;0.00;;;;;21.32;56.07;101735.91;5021786;28;45451;-79
2021/09/06 03:34:30;;;;;;;;;1.00;0.00;;;;;21.43;56.02;101759.47;5021656;28;45279;-78
2021/09/06 03:36:56;;;;;;;;;0.00;0.00;;;;;21.32;56.11;101747.38;5021350;28;46267;-79
2021/09/06 03:39:21;;;;;;;;;2.00;1.00;;;;;21.36;56.12;101756.09;5021233;28;45443;-79
2021/09/06 03:41:47;;;;;;;;;0.00;0.00;;;;;21.42;55.87;101763.94;5090419;27;45386;-79
2021/09/06 03:44:12;;;;;;;;;0.00;0.00;;;;;21.10;56.27;101713.38;5022022;28;45353;-78
2021/09/06 03:46:37;;;;;;;;;0.00;0.00;;;;;21.22;55.81;101736.06;5089909;27;47173;-79
2021/09/06 03:49:03;;;;;;;;;0.00;0.00;;;;;21.38;56.13;101771.06;5020993;27;45253;-78
2021/09/06 03:51:28;;;;;;;;;0.00;0.00;;;;;21.10;56.02;101720.47;5021480;28;45214;-79
2021/09/06 03:53:54;;;;;;;;;1.00;0.00;;;;;21.16;55.97;101728.25;5022291;28;45203;-79
2021/09/06 03:56:19;;;;;;;;;0.00;0.00;;;;;21.18;56.35;101736.16;5089728;27;47505;-79
2021/09/06 03:58:44;;;;;;;;;0.00;0.00;;;;;21.19;55.98;101730.84;5021204;28;45301;-79
2021/09/06 04:01:10;;;;;;;;;0.75;0.75;;;;;21.34;56.21;101750.84;5021396;28;45263;-79
2021/09/06 04:03:36;;;;;;;;;0.75;0.00;;;;;21.15;56.32;101731.81;5021487;28;45176;-79
2021/09/06 04:06:02;;;;;;;;;0.00;0.00;;;;;21.32;56.18;101752.66;5021068;28;45476;-80
2021/09/06 04:08:28;;;;;;;;;0.00;0.00;;;;;21.17;55.98;101726.47;5021749;28;45378;-79
2021/09/06 04:10:53;;;;;;;;;0.00;0.00;;;;;21.22;56.10;101740.53;5021934;28;45283;-80
2021/09/06 04:13:19;;;;;;;;;0.00;0.00;;;;;21.16;55.91;101730.91;5023352;28;45427;-80
2021/09/06 04:15:47;;;;;;;;;0.00;0.00;;;;;21.20;55.90;101737.91;5023415;28;45429;-80
2021/09/06 04:18:13;;;;;;;;;0.00;0.00;;;;;21.22;55.80;101740.53;5023455;28;45294;-80
2021/09/06 04:20:38;;;;;;;;;1.00;1.00;;;;;21.17;56.33;101737.97;5023189;28;45236;-79
2021/09/06 04:23:04;;;;;;;;;0.00;0.00;;;;;21.12;56.43;101723.94;5023073;28;45219;-79
2021/09/06 04:25:29;;;;;;;;;0.00;0.00;;;;;21.29;55.98;101752.72;5022458;27;46262;-78
2021/09/06 04:27:55;;;;;;;;;2.00;0.00;;;;;21.34;56.29;101768.50;5022494;27;45248;-79
2021/09/06 04:30:20;;;;;;;;;0.00;0.00;;;;;21.29;56.25;101757.13;5005506;28;45341;-79
2021/09/06 04:32:45;;;;;;;;;0.25;0.25;;;;;21.23;56.30;101751.03;5022093;28;45288;-80
2021/09/06 04:35:11;;;;;;;;;0.00;0.00;;;;;21.20;56.24;101748.50;5005164;28;47978;-79
2021/09/06 04:37:36;;;;;;;;;0.50;0.25;;;;;21.21;56.02;101750.22;5022205;28;45247;-80
2021/09/06 04:40:03;;;;;;;;;0.75;0.75;;;;;21.32;56.14;101770.31;5005749;28;45262;-80
2021/09/06 04:42:28;;;;;;;;;1.00;0.25;;;;;21.36;55.69;101774.63;5021634;28;45377;-80
2021/09/06 04:44:53;;;;;;;;;0.00;0.00;;;;;21.33;56.03;101782.66;5003089;28;47185;-80
2021/09/06 04:47:20;;;;;;;;;0.00;0.00;;;;;21.18;55.80;101765.28;5023403;27;45480;-79
2021/09/06 04:49:45;;;;;;;;;0.00;0.00;;;;;21.05;56.16;101748.78;5091296;27;45375;-79
2021/09/06 04:52:12;;;;;;;;;0.00;0.00;;;;;21.13;55.80;101773.31;5021521;28;45341;-80
2021/09/06 04:54:37;;;;;;;;;1.00;1.00;;;;;21.16;55.91;101789.13;5024694;28;45355;-80
2021/09/06 04:57:03;;;;;;;;;1.25;1.25;;;;;21.18;55.75;101790.00;5005720;28;45192;-80
2021/09/06 04:59:28;;;;;;;;;0.00;0.00;;;;;21.23;56.04;101793.41;5092623;27;45455;-80
2021/09/06 05:01:54;;;;;;;;;1.00;1.00;;;;;21.09;56.38;101783.09;5021733;28;45243;-79
2021/09/06 05:04:19;;;;;;;;;2.50;0.25;;;;;20.99;56.05;101760.34;5005334;28;47022;-79
2021/09/06 05:06:44;;;;;;;;;0.25;0.25;;;;;21.16;56.29;101802.38;5025459;28;44632;-80
2021/09/06 05:09:09;;;;;;;;;0.00;0.00;;;;;21.19;56.26;101812.06;5036025;28;45273;-80
2021/09/06 05:11:35;;;;;;;;;2.50;2.50;;;;;21.00;56.54;101776.22;5024178;28;45493;-80
2021/09/06 05:14:00;;;;;;;;;1.50;1.50;;;;;21.09;56.65;101799.00;5024860;28;46626;-79
2021/09/06 05:16:26;;;;;;;;;3.00;1.00;;;;;21.10;56.64;101806.00;5003287;28;45260;-80
2021/09/06 05:18:51;;;;;;;;;0.00;0.00;;;;;21.08;56.90;101807.84;5004715;28;45290;-80
2021/09/06 05:21:16;;;;;;;;;1.00;1.00;;;;;20.99;57.01;101808.88;5036559;27;45585;-80
2021/09/06 05:23:42;;;;;;;;;1.00;1.00;;;;;20.81;56.74;101785.34;5024943;27;46036;-79
2021/09/06 05:26:07;;;;;;;;;3.25;0.00;;;;;20.90;56.74;101798.44;5027442;27;45212;-80
2021/09/06 05:28:32;;;;;;;;;0.00;0.00;;;;;20.99;56.93;101819.47;5097862;27;45500;-79
2021/09/06 05:30:58;;;;;;;;;0.00;0.00;;;;;20.98;56.58;101816.84;5023020;28;45462;-79
2021/09/06 05:33:23;;;;;;;;;0.00;0.00;;;;;20.91;57.06;101807.28;5010115;28;47397;-80
2021/09/06 05:35:49;;;;;;;;;0.00;0.00;;;;;21.00;56.63;101837.09;5028837;28;45267;-78
2021/09/06 05:38:14;;;;;;;;;0.00;0.00;;;;;20.96;57.22;101824.81;5020702;28;45361;-79
2021/09/06 05:40:40;;;;;;;;;1.25;1.25;;;;;21.09;57.28;101843.97;5028081;28;45434;-79
2021/09/06 05:43:05;;;;;;;;;0.25;0.00;;;;;21.09;56.90;101837.81;5049751;27;47320;-79
2021/09/06 05:45:31;;;;;;;;;4.50;1.25;;;;;21.02;56.63;101835.25;5031615;28;45435;-79
2021/09/06 05:47:58;;;;;;;;;0.00;0.00;;;;;21.04;56.93;101839.69;5026741;28;45487;-78
2021/09/06 05:50:25;;;;;;;;;0.00;0.00;;;;;21.10;56.79;101855.47;5027382;27;45211;-77
2021/09/06 05:52:51;;;;;;;;;2.00;1.00;;;;;20.88;56.57;101816.97;5018762;28;46186;-78
2021/09/06 05:55:16;;;;;;;;;0.25;0.25;;;;;21.04;56.72;101837.88;5001591;28;45323;-77
2021/09/06 05:57:41;;;;;;;;;1.00;1.00;;;;;20.96;56.22;101824.81;5019383;28;45508;-78
2021/09/06 06:00:08;;;;;;;;;0.75;0.50;;;;;21.13;56.78;101853.63;5020979;28;45147;-76
2021/09/06 06:02:34;;;;;;;;;0.00;0.00;;;;;21.06;56.85;101844.03;5019127;28;46552;-79
2021/09/06 06:04:59;;;;;;;;;0.00;0.00;;;;;21.17;56.01;101865.03;5034340;27;45441;-79
2021/09/06 06:07:24;;;;;;;;;1.50;1.50;;;;;21.16;56.68;101857.97;5024894;28;45283;-79
2021/09/06 06:09:52;;;;;;;;;0.50;0.50;;;;;21.27;56.22;101873.66;5090935;27;45429;-78
2021/09/06 06:12:17;;;;;;;;;0.25;0.25;;;;;21.19;55.74;101863.22;5029456;28;45365;-78
2021/09/06 06:14:43;;;;;;;;;0.00;0.00;;;;;21.22;56.31;101873.75;5042448;27;45245;-81
2021/09/06 06:17:08;;;;;;;;;1.00;1.00;;;;;21.00;55.82;101828.25;5038728;28;45241;-79
2021/09/06 06:19:33;;;;;;;;;1.75;1.75;;;;;20.97;55.76;101823.03;5019609;28;45321;-79
2021/09/06 06:21:59;;;;;;;;;1.75;1.00;;;;;21.16;55.94;101860.63;5035803;28;47280;-77
2021/09/06 06:24:24;;;;;;;;;0.00;0.00;;;;;21.24;56.20;101866.66;5018788;28;45234;-77
2021/09/06 06:26:49;;;;;;;;;1.00;1.00;;;;;21.17;55.90;101842.97;5121031;27;45318;-77
2021/09/06 06:29:15;;;;;;;;;0.50;0.50;;;;;21.33;55.60;101880.63;5019292;27;45369;-77
2021/09/06 06:31:40;;;;;;;;;1.00;0.00;;;;;21.37;55.95;101888.50;5018658;28;45345;-77
2021/09/06 06:34:06;;;;;;;;;0.00;0.00;;;;;21.22;55.82;101862.31;5017021;28;45231;-77
2021/09/06 06:36:31;;;;;;;;;3.50;0.00;;;;;21.33;55.54;101889.44;5017171;28;45246;-77
2021/09/06 06:38:56;;;;;;;;;0.25;0.25;;;;;21.38;55.67;101894.66;5018659;28;45330;-77
2021/09/06 06:41:22;;;;;;;;;1.00;1.00;;;;;21.38;55.82;101889.38;5018052;27;46280;-77
2021/09/06 06:43:47;;;;;;;;;2.00;1.00;;;;;21.25;55.37;101871.06;5086364;27;45264;-77
2021/09/06 06:46:12;;;;;;;;;1.00;1.00;;;;;21.32;55.60;101873.59;5018482;28;45219;-78
2021/09/06 06:48:39;;;;;;;;;1.00;1.00;;;;;21.32;55.94;101871.81;5086598;27;45284;-77
2021/09/06 06:51:04;;;;;;;;;1.25;0.00;;;;;21.12;55.72;101829.81;5020451;28;45394;-77
2021/09/06 06:53:30;;;;;;;;;0.50;0.50;;;;;21.47;55.64;101888.31;5021231;28;45324;-77
2021/09/06 06:55:55;;;;;;;;;1.25;0.75;;;;;21.36;55.80;101867.31;5021202;28;45325;-77
2021/09/06 06:58:20;;;;;;;;;1.00;1.00;;;;;21.56;55.61;101892.56;5021305;28;45276;-77
2021/09/06 07:00:46;;;;;;;;;0.75;0.75;;;;;21.63;55.22;101896.84;5089727;27;47008;-77
2021/09/06 07:03:11;;;;;;;;;0.00;0.00;;;;;21.70;54.93;101910.81;5089929;27;45752;-77
2021/09/06 07:05:36;;;;;;;;;0.50;0.50;;;;;21.57;55.46;101889.91;5021566;28;45245;-77
2021/09/06 07:08:02;;;;;;;;;1.25;0.75;;;;;21.73;54.75;101909.00;5021644;28;45542;-77
2021/09/06 07:10:27;;;;;;;;;2.00;1.00;;;;;21.69;54.49;101886.13;5029066;28;45316;-81
2021/09/06 07:12:53;;;;;;;;;1.00;1.00;;;;;21.64;54.91;101880.03;5023063;28;45349;-83
2021/09/06 07:15:18;;;;;;;;;1.00;1.00;;;;;21.68;54.25;101887.00;5003625;28;45836;-81
2021/09/06 07:17:43;;;;;;;;;0.50;0.00;;;;;21.88;54.71;101918.47;5035164;27;45449;-79
2021/09/06 07:20:12;;;;;;;;;0.75;0.75;;;;;21.84;54.75;101908.81;5056621;27;46777;-84
2021/09/06 07:22:37;;;;;;;;;0.25;0.25;;;;;21.77;54.42;101900.13;5042024;27;45417;-81
2021/09/06 07:25:03;;;;;;;;;1.00;1.00;;;;;21.94;54.83;101921.88;5023195;27;45711;-78
2021/09/06 07:27:28;;;;;;;;;0.00;0.00;;;;;21.79;54.19;101888.59;5023460;28;45538;-79
2021/09/06 07:29:54;;;;;;;;;0.75;0.00;;;;;21.87;54.20;101899.94;5012042;28;45953;-78
2021/09/06 07:32:19;;;;;;;;;0.00;0.00;;;;;22.09;54.77;101923.34;5020206;27;45329;-78
2021/09/06 07:34:44;;;;;;;;;0.50;0.50;;;;;21.83;54.57;101875.25;5026325;28;45371;-78
2021/09/06 07:37:10;;;;;;;;;2.00;2.00;;;;;22.06;54.24;101899.53;5026537;28;45442;-79
2021/09/06 07:39:36;;;;;;;;;0.75;0.00;;;;;22.14;54.94;101905.53;5035363;28;45492;-81
2021/09/06 07:42:03;;;;;;;;;0.00;0.00;;;;;22.18;54.33;101901.94;5036560;28;45319;-80
2021/09/06 07:44:29;;;;;;;;;0.00;0.00;;;;;22.18;54.29;101894.00;5024254;28;45231;-80
2021/09/06 07:46:56;;;;;;;;;1.00;1.00;;;;;22.24;53.86;101890.31;5024746;28;45331;-81
2021/09/06 07:49:21;;;;;;;;;0.00;0.00;;;;;22.43;53.83;101911.13;5021565;28;45967;-80
2021/09/06 07:51:52;;;;;;;;;0.00;0.00;;;;;22.45;53.74;101904.84;5022696;28;45151;-81
2021/09/06 07:54:19;;;;;;;;;1.50;1.50;;;;;22.65;53.70;101923.03;5025611;28;45273;-81
2021/09/06 07:56:46;;;;;;;;;2.00;0.00;;;;;22.69;53.70;101923.81;5036171;27;45384;-80
2021/09/06 07:59:11;;;;;;;;;0.00;0.00;;;;;22.83;53.22;101934.09;5028361;28;45432;-81
2021/09/06 08:01:39;;;;;;;;;0.75;0.75;;;;;22.84;52.98;101929.66;5017073;28;45478;-81
2021/09/06 08:04:04;;;;;;;;;1.00;1.00;;;;;22.80;53.11;101920.00;5020851;27;45466;-80
2021/09/06 08:06:29;;;;;;;;;0.75;0.50;;;;;23.00;52.63;101944.28;5020778;28;45388;-81
2021/09/06 08:08:55;;;;;;;;;0.25;0.25;;;;;22.80;52.92;101906.75;5020703;28;46531;-80
2021/09/06 08:11:20;;;;;;;;;1.00;1.00;;;;;22.94;53.00;101936.47;5049138;27;45314;-80
2021/09/06 08:13:45;;;;;;;;;0.50;0.00;;;;;23.10;52.75;101952.03;5023518;28;45377;-78
2021/09/06 08:16:11;;;;;;;;;0.00;0.00;;;;;23.13;52.52;101950.16;5024358;28;45527;-79
2021/09/06 08:18:36;;;;;;;;;0.75;0.75;;;;;23.00;52.45;101906.28;5032632;27;47121;-81
2021/09/06 08:21:02;;;;;;;;;3.25;0.25;;;;;23.34;52.34;101958.50;5024345;28;45468;-79
2021/09/06 08:23:27;;;;;;;;;1.00;0.00;;;;;23.35;52.25;101944.31;5019870;28;45364;-80
2021/09/06 08:25:52;;;;;;;;;1.25;1.00;;;;;23.44;52.05;101943.22;5022554;28;45378;-79
2021/09/06 08:28:18;;;;;;;;;1.00;0.00;;;;;23.52;52.17;101951.00;5036718;28;45437;-77
2021/09/06 08:30:44;;;;;;;;;1.00;1.00;;;;;23.58;51.78;101957.94;5024277;27;45356;-79
2021/09/06 08:33:09;;;;;;;;;1.00;1.00;;;;;23.59;52.15;101952.59;5023927;27;45465;-79
2021/09/06 08:35:34;;;;;;;;;1.00;1.00;;;;;23.44;51.53;101929.94;5032600;28;45167;-79
2021/09/06 08:38:00;;;;;;;;;1.25;0.25;;;;;23.64;51.84;101955.09;5027774;28;45216;-79
2021/09/06 08:40:25;;;;;;;;;0.00;0.00;;;;;23.71;51.31;101940.75;5017814;28;45315;-79
2021/09/06 08:42:52;;;;;;;;;1.50;0.25;;;;;23.76;51.27;101938.81;5019810;28;45542;-78
2021/09/06 08:45:17;;;;;;;;;0.00;0.00;;;;;23.80;51.11;101921.00;5020787;28;45219;-81
2021/09/06 08:47:43;;;;;;;;;2.00;2.00;;;;;23.84;51.00;101919.09;5026126;27;47268;-82
2021/09/06 08:50:11;;;;;;;;;3.00;3.00;;;;;23.90;50.87;101927.81;5058877;27;45661;-81
2021/09/06 08:52:37;;;;;;;;;2.00;1.00;;;;;23.92;50.50;101919.78;5022152;28;45387;-84
2021/09/06 08:55:04;;;;;;;;;0.50;0.00;;;;;23.77;50.64;101884.72;5025645;28;45429;-85
2021/09/06 08:57:29;;;;;;;;;1.00;0.00;;;;;23.81;50.25;101874.88;5023527;28;46809;-85
2021/09/06 08:59:57;;;;;;;;;0.00;0.00;;;;;24.40;50.08;101944.97;5019956;28;45298;-81
2021/09/06 09:02:24;;;;;;;;;0.00;0.00;;;;;24.51;49.68;101952.63;5026671;27;45499;-83
2021/09/06 09:05:04;;;;;;;;;0.00;0.00;;;;;24.61;48.86;101945.22;5020940;28;45458;-83
2021/09/06 09:07:31;;;;;;;;;0.50;0.50;;;;;24.77;48.42;101963.34;5024228;28;46605;-82
2021/09/06 09:10:10;;;;;;;;;0.00;0.00;;;;;24.75;47.54;101938.59;5015195;27;46058;-83
2021/09/06 09:12:37;;;;;;;;;0.50;0.00;;;;;24.48;47.68;101875.56;5032202;27;45369;-84
2021/09/06 09:15:05;;;;;;;;;1.50;1.50;;;;;24.73;47.91;101888.06;5019496;28;45515;-83
2021/09/06 09:17:38;;;;;;;;;2.00;1.75;;;;;24.78;47.89;101891.41;5016038;27;45472;-86
2021/09/06 09:20:11;;;;;;;;;0.50;0.50;;;;;24.38;46.56;101812.91;4995770;28;45260;-86
2021/09/06 09:22:45;;;;;;;;;0.00;0.00;;;;;24.68;46.52;101834.06;5086766;27;45405;-86
2021/09/06 09:25:16;;;;;;;;;0.50;0.25;;;;;24.49;45.66;101786.81;5036074;27;45389;-84
2021/09/06 09:27:46;;;;;;;;;0.00;0.00;;;;;24.65;45.73;101805.78;5100925;27;47671;-85
2021/09/06 09:30:23;;;;;;;;;0.50;0.50;;;;;25.46;45.32;101918.47;5019278;27;45835;-83
2021/09/06 09:33:11;;;;;;;;;0.00;0.00;;;;;25.40;45.11;101903.56;5041951;27;45364;-82
2021/09/06 09:35:37;;;;;;;;;1.00;0.00;;;;;25.59;44.57;101924.22;5035977;28;45359;-82
2021/09/06 09:38:09;;;;;;;;;0.75;0.00;;;;;25.89;44.63;101954.28;5024310;28;45995;-82
2021/09/06 09:40:41;;;;;;;;;2.00;1.00;;;;;25.90;43.92;101941.78;5026555;28;45286;-80
2021/09/06 09:43:08;;;;;;;;;0.00;0.00;;;;;26.01;44.03;101942.28;5001130;27;45412;-79
2021/09/06 09:45:34;;;;;;;;;2.00;0.75;;;;;26.16;43.71;101954.13;5025236;27;45642;-82
2021/09/06 09:48:01;;;;;;;;;1.00;1.00;;;;;26.20;42.73;101960.25;5046518;27;47168;-82
2021/09/06 09:50:31;;;;;;;;;0.00;0.00;;;;;26.08;42.82;101915.34;5021256;28;45458;-82
2021/09/06 09:52:57;;;;;;;;;0.25;0.25;;;;;26.34;42.42;101956.19;5023136;28;45450;-83
2021/09/06 09:55:24;;;;;;;;;2.00;0.75;;;;;26.40;42.42;101954.16;5036135;27;45540;-81
2021/09/06 09:57:50;;;;;;;;;0.00;0.00;;;;;26.40;41.95;101946.13;5019265;28;45478;-83
2021/09/06 10:00:16;;;;;;;;;2.50;2.50;;;;;26.47;41.59;101949.44;5019529;28;45405;-85
2021/09/06 10:02:50;;;;;;;;;0.25;0.25;;;;;26.56;41.47;101949.06;5023154;28;45427;-85
2021/09/06 10:05:17;;;;;;;;;0.75;0.75;;;;;26.49;42.07;101933.38;5050302;27;45276;-85
2021/09/06 10:07:46;;;;;;;;;0.00;0.00;;;;;26.36;42.26;101914.28;5024761;27;45259;-86
2021/09/06 10:10:17;;;;;;;;;0.00;0.00;;;;;26.57;42.84;101949.94;5021350;27;45942;-84
2021/09/06 10:12:43;;;;;;;;;0.75;0.00;;;;;26.33;42.72;101895.75;5018289;28;45507;-85
2021/09/06 10:15:09;;;;;;;;;0.00;0.00;;;;;26.67;42.52;101943.28;5047665;27;45518;-84
2021/09/06 10:17:40;;;;;;;;;0.00;0.00;;;;;26.55;42.28;101914.44;5024870;27;45383;-86
2021/09/06 10:20:11;;;;;;;;;1.75;1.00;;;;;26.80;42.57;101946.31;5029150;27;45466;-81
2021/09/06 10:22:37;;;;;;;;;0.75;0.00;;;;;26.87;41.72;101940.75;5049185;27;45360;-81
2021/09/06 10:25:06;;;;;;;;;1.00;1.00;;;;;26.89;42.36;101934.38;5019653;28;45498;-81
2021/09/06 10:27:35;;;;;;;;;0.00;0.00;;;;;26.93;41.55;101924.47;5017435;28;45480;-82
2021/09/06 10:30:07;;;;;;;;;1.50;0.25;;;;;27.06;42.39;101930.19;5023533;27;45399;-82
2021/09/06 10:32:40;;;;;;;;;0.00;0.00;;;;;27.05;42.49;101926.66;5017319;28;45435;-84
2021/09/06 10:35:09;;;;;;;;;0.25;0.25;;;;;27.16;42.10;101934.19;5005864;27;45505;-82
2021/09/06 10:37:36;;;;;;;;;0.00;0.00;;;;;27.10;41.93;101914.91;5045847;27;47144;-85
2021/09/06 10:40:06;;;;;;;;;0.00;0.00;;;;;27.24;42.17;101925.84;5029024;27;45427;-84
2021/09/06 10:42:33;;;;;;;;;0.00;0.00;;;;;27.23;41.94;101915.22;5019001;28;45460;-83
2021/09/06 10:45:00;;;;;;;;;2.00;0.50;;;;;27.31;42.20;101921.97;5002651;28;45443;-82
2021/09/06 10:47:26;;;;;;;;;0.00;0.00;;;;;27.30;41.21;101917.56;5027471;28;45405;-83
2021/09/06 10:49:51;;;;;;;;;2.25;2.00;;;;;26.92;41.80;101853.28;5016842;27;45566;-82
2021/09/06 10:52:17;;;;;;;;;0.00;0.00;;;;;27.24;41.45;101900.91;5020537;28;45431;-83
2021/09/06 10:54:43;;;;;;;;;1.75;0.00;;;;;27.31;41.24;101916.63;5011594;28;45559;-85
2021/09/06 10:57:12;;;;;;;;;0.00;0.00;;;;;27.32;41.52;101912.16;5023902;28;45982;-86
2021/09/06 10:59:43;;;;;;;;;0.00;0.00;;;;;27.29;41.25;101921.16;5018022;28;45723;-83
2021/09/06 11:02:09;;;;;;;;;0.25;0.00;;;;;26.71;41.02;101821.22;5017731;27;45468;-83
2021/09/06 11:04:35;;;;;;;;;0.75;0.75;;;;;27.04;40.93;101873.28;5018954;27;45459;-83
2021/09/06 11:07:06;;;;;;;;;1.00;0.00;;;;;27.22;41.73;101882.28;5028791;27;47120;-84
2021/09/06 11:09:33;;;;;;;;;0.75;0.75;;;;;27.42;40.82;101910.81;5023857;28;45421;-80
2021/09/06 11:12:10;;;;;;;;;2.00;1.00;;;;;27.36;41.16;101900.38;5009223;28;45295;-82
2021/09/06 11:14:36;;;;;;;;;1.00;1.00;;;;;27.53;41.61;101915.66;5023099;28;45277;-80
2021/09/06 11:17:03;;;;;;;;;0.75;0.75;;;;;27.48;40.21;101906.13;5009269;28;46043;-81
2021/09/06 11:19:31;;;;;;;;;1.00;1.00;;;;;27.49;40.97;101906.03;5016286;28;45518;-82